Terminal Aerodrome Forecast
Issued by NWS

Home | Current Version | Previous Version | Text Only | Print | Product List | Glossary On
Versions: 1 2 3 4 5 6 7 8 9 10 11 12
000
FTUS46 KSEW 051124
TAFBLI
TAF
KBLI 051124Z 0512/0612 18007KT P6SM SCT080
     FM051500 17012KT P6SM SCT050 OVC080
     FM052000 17012KT P6SM -SHRA BKN030 OVC050
     FM060400 18006KT P6SM BKN030 OVC050=

USA.gov is the U.S. government's official web portal to all federal, state and local government web resources and services.